< Cyclone 197907 1979 Season Cyclone 197909 >
Cyclone 197908 (STAN)
General InformationTrack Information on Google MapsList of All Images || ResourceGoogle EarthGE AnimationAtom FeedGeoJSON
Detalied Best Track (Time Zone = UTC)
Year Month Day Hour Lat. Long. Pressure (hPa) Wind (kt) Class Image Chart
1979 4 6 05 -11.0 150.1 1002 0 0 Image --
1979 4 6 11 -11.0 149.5 1004 0 0 Image --
1979 4 6 17 -10.9 148.9 1002 0 0 Image --
1979 4 6 23 -10.8 148.1 1005 0 0 Image --
1979 4 7 05 -10.7 147.1 1002 0 0 Image --
1979 4 7 11 -10.7 146.0 1004 0 0 Image --
1979 4 7 17 -10.7 144.8 1002 0 0 Image --
1979 4 7 23 -10.7 143.6 1004 0 0 Image --
1979 4 8 05 -10.7 142.7 1003 0 0 Image --
1979 4 8 08 -10.7 142.3 1001 0 0 Image --
1979 4 8 11 -10.7 142.3 1003 0 0 Image --
1979 4 8 17 -10.7 142.3 1003 0 0 Image --
1979 4 8 20 -10.7 142.0 1003 0 0 Image --
1979 4 8 23 -10.7 141.7 1005 0 0 Image --
1979 4 9 05 -10.7 141.0 1003 0 0 Image --
1979 4 9 11 -10.6 140.3 1004 0 0 Image --
1979 4 9 17 -10.6 139.6 1003 0 0 Image --
1979 4 9 23 -10.6 138.9 1004 0 0 Image --
1979 4 10 05 -10.5 138.3 999 0 0 Image --
1979 4 10 11 -10.4 137.8 1001 0 0 Image --
1979 4 10 17 -10.4 137.4 1000 0 0 Image --
1979 4 10 23 -10.4 137.0 999 0 0 Image --
1979 4 11 05 -10.4 136.7 996 0 0 Image --
1979 4 11 11 -10.4 136.7 1000 0 0 Image --
1979 4 11 17 -10.4 136.7 999 0 0 Image --
1979 4 11 23 -10.4 136.7 1000 0 0 Image --
1979 4 12 05 -10.5 136.8 999 0 0 Image --
1979 4 12 11 -10.5 137.0 1000 0 0 Image --
1979 4 12 17 -10.6 137.2 1000 0 0 Image --
1979 4 12 23 -10.7 137.6 1000 0 0 Image --
1979 4 13 05 -10.8 138.3 996 0 0 Image --
1979 4 13 11 -11.0 139.1 1000 0 0 Image --
1979 4 13 17 -11.4 139.7 995 0 0 Image --
1979 4 13 23 -11.8 140.3 997 0 0 Image --
1979 4 14 05 -12.1 141.2 996 0 0 Image --
1979 4 14 08 -12.2 141.8 1000 0 0 Image --
1979 4 14 11 -12.3 143.2 1002 0 0 Image --
1979 4 14 17 -12.3 145.5 1000 0 0 Image --
1979 4 14 23 -12.5 147.5 1002 0 0 Image --
1979 4 15 05 -12.7 149.5 1000 0 0 Image --
1979 4 15 11 -12.9 151.3 1002 0 0 Image --
1979 4 15 17 -13.1 152.8 1002 0 0 Image --
< Cyclone 197907 1979 Season Cyclone 197909 >

Help